Time;durP1;ratioP1;P1;durP2;ratioP2;P2;SDS_P1;SDS_P2;PMS_P1;PMS_P2;Temp;Humidity;BMP_temperature;BMP_pressure;BME280_temperature;BME280_humidity;BME280_pressure;Samples;Min_cycle;Max_cycle;Signal;HPM_P1;HPM_P2
2022/02/18 00:02:19;;;;;;;13.20;2.57;;;;;;;;;;4993471;28;20078;-61
2022/02/18 00:04:44;;;;;;;12.63;2.93;;;;;;;;;;4989322;28;20582;-61
2022/02/18 00:07:10;;;;;;;9.57;2.40;;;;;;;;;;4993028;28;20436;-60
2022/02/18 00:09:35;;;;;;;16.80;3.23;;;;;;;;;;4998740;28;20106;-61
2022/02/18 00:12:00;;;;;;;10.63;2.70;;;;;;;;;;5001838;28;20485;-61
2022/02/18 00:14:25;;;;;;;11.33;2.87;;;;;;;;;;4989330;28;20079;-59
2022/02/18 00:16:51;;;;;;;15.47;3.33;;;;;;;;;;5002225;28;20145;-58
2022/02/18 00:19:16;;;;;;;10.97;3.13;;;;;;;;;;4989600;28;20097;-60
2022/02/18 00:21:41;;;;;;;12.87;3.73;;;;;;;;;;4993151;28;20468;-58
2022/02/18 00:24:06;;;;;;;17.30;3.03;;;;;;;;;;4995145;28;20457;-60
2022/02/18 00:26:32;;;;;;;16.30;3.13;;;;;;;;;;4991296;28;20082;-60
2022/02/18 00:28:57;;;;;;;11.70;3.03;;;;;;;;;;4998184;28;20854;-58
2022/02/18 00:31:22;;;;;;;17.37;3.90;;;;;;;;;;5002432;28;20086;-58
2022/02/18 00:33:47;;;;;;;14.37;3.33;;;;;;;;;;4994149;28;20300;-60
2022/02/18 00:36:13;;;;;;;13.60;3.13;;;;;;;;;;5000741;28;20110;-58
2022/02/18 00:38:39;;;;;;;15.70;3.13;;;;;;;;;;4998454;28;21017;-58
2022/02/18 00:41:06;;;;;;;13.97;3.47;;;;;;;;;;5001446;28;20145;-59
2022/02/18 00:43:31;;;;;;;13.27;3.17;;;;;;;;;;4993625;28;21003;-60
2022/02/18 00:45:56;;;;;;;19.13;3.83;;;;;;;;;;4994188;28;20177;-60
2022/02/18 00:48:22;;;;;;;13.57;3.43;;;;;;;;;;4997776;28;20193;-58
2022/02/18 00:50:47;;;;;;;19.77;3.80;;;;;;;;;;5001144;28;20102;-60
2022/02/18 00:53:12;;;;;;;11.07;2.58;;;;;;;;;;5000225;28;20157;-60
2022/02/18 00:55:37;;;;;;;23.07;3.33;;;;;;;;;;4996860;28;20169;-58
2022/02/18 00:58:03;;;;;;;18.30;3.37;;;;;;;;;;5001159;28;20729;-58
2022/02/18 01:00:28;;;;;;;15.97;2.90;;;;;;;;;;5000558;28;20117;-59
2022/02/18 01:02:53;;;;;;;9.50;2.70;;;;;;;;;;4998781;28;20093;-58
2022/02/18 01:05:18;;;;;;;22.47;3.70;;;;;;;;;;4996123;28;20396;-58
2022/02/18 01:07:43;;;;;;;16.63;2.90;;;;;;;;;;5007259;28;20252;-58
2022/02/18 01:10:10;;;;;;;18.60;3.37;;;;;;;;;;4993777;28;20157;-59
2022/02/18 01:12:35;;;;;;;13.43;3.13;;;;;;;;;;4998382;28;20114;-58
2022/02/18 01:15:00;;;;;;;12.83;3.10;;;;;;;;;;4991729;28;20074;-61
2022/02/18 01:17:25;;;;;;;20.00;3.70;;;;;;;;;;4988395;28;20399;-60
2022/02/18 01:19:50;;;;;;;13.83;2.97;;;;;;;;;;4992707;28;20209;-61
2022/02/18 01:22:16;;;;;;;11.77;2.63;;;;;;;;;;4995210;28;20123;-61
2022/02/18 01:24:41;;;;;;;11.53;2.93;;;;;;;;;;4990659;28;20098;-61
2022/02/18 01:27:06;;;;;;;12.27;2.43;;;;;;;;;;4988628;28;20307;-58
2022/02/18 01:29:31;;;;;;;13.33;3.07;;;;;;;;;;4992893;28;20498;-58
2022/02/18 01:31:57;;;;;;;18.70;3.33;;;;;;;;;;4994854;28;20345;-61
2022/02/18 01:34:22;;;;;;;7.40;2.13;;;;;;;;;;4991226;28;20835;-59
2022/02/18 01:36:47;;;;;;;9.73;2.43;;;;;;;;;;4988220;28;20109;-60
2022/02/18 01:39:12;;;;;;;8.27;2.17;;;;;;;;;;4996369;28;20114;-60
2022/02/18 01:41:37;;;;;;;12.00;2.50;;;;;;;;;;4996939;28;20458;-59
2022/02/18 01:44:05;;;;;;;11.68;2.55;;;;;;;;;;4989859;28;22101;-60
2022/02/18 01:46:30;;;;;;;13.73;2.72;;;;;;;;;;4987433;28;20577;-60
2022/02/18 01:48:55;;;;;;;11.05;2.30;;;;;;;;;;4993111;28;20197;-61
2022/02/18 01:51:21;;;;;;;7.47;2.00;;;;;;;;;;4995096;28;20101;-60
2022/02/18 01:53:47;;;;;;;20.92;3.13;;;;;;;;;;4989722;28;20168;-59
2022/02/18 01:56:13;;;;;;;17.40;2.90;;;;;;;;;;4986355;28;20471;-61
2022/02/18 01:58:38;;;;;;;13.73;3.03;;;;;;;;;;4994083;28;20129;-61
2022/02/18 02:01:04;;;;;;;11.82;2.67;;;;;;;;;;5016539;28;20537;-61
2022/02/18 02:03:29;;;;;;;13.53;2.97;;;;;;;;;;4997229;28;20583;-61
2022/02/18 02:05:56;;;;;;;30.27;8.27;;;;;;;;;;5004517;28;20337;-62
2022/02/18 02:08:21;;;;;;;12.63;3.22;;;;;;;;;;4995584;28;20172;-62
2022/02/18 02:10:46;;;;;;;15.90;3.00;;;;;;;;;;5005600;28;20124;-62
2022/02/18 02:13:13;;;;;;;7.40;2.33;;;;;;;;;;5004479;28;20098;-62
2022/02/18 02:15:38;;;;;;;17.23;3.30;;;;;;;;;;4993046;28;20428;-62
2022/02/18 02:18:04;;;;;;;13.10;3.40;;;;;;;;;;5023314;28;20188;-62
2022/02/18 02:20:29;;;;;;;11.20;3.40;;;;;;;;;;4991237;28;20349;-62
2022/02/18 02:22:54;;;;;;;9.23;2.72;;;;;;;;;;5003181;28;20082;-62
2022/02/18 02:25:19;;;;;;;16.40;3.50;;;;;;;;;;4990854;28;20168;-62
2022/02/18 02:27:45;;;;;;;17.17;5.30;;;;;;;;;;5004155;28;20189;-62
2022/02/18 02:30:10;;;;;;;17.53;3.30;;;;;;;;;;4993261;28;20233;-62
2022/02/18 02:32:36;;;;;;;16.75;3.20;;;;;;;;;;5002542;28;20110;-62
2022/02/18 02:35:01;;;;;;;14.60;4.20;;;;;;;;;;4994267;28;20082;-62
2022/02/18 02:37:26;;;;;;;14.47;5.97;;;;;;;;;;5000757;28;20703;-62
2022/02/18 02:39:51;;;;;;;17.40;4.80;;;;;;;;;;5003803;28;20098;-59
2022/02/18 02:42:16;;;;;;;15.83;3.53;;;;;;;;;;5002192;28;20467;-62
2022/02/18 02:44:42;;;;;;;14.03;6.30;;;;;;;;;;5014712;28;20109;-62
2022/02/18 02:47:07;;;;;;;18.77;3.43;;;;;;;;;;5009475;28;20092;-62
2022/02/18 02:49:32;;;;;;;13.07;3.57;;;;;;;;;;4989855;28;20607;-62
2022/02/18 02:51:57;;;;;;;14.60;3.87;;;;;;;;;;5002083;28;20356;-62
2022/02/18 02:54:23;;;;;;;13.87;6.30;;;;;;;;;;4999327;28;20329;-62
2022/02/18 02:56:48;;;;;;;13.60;4.43;;;;;;;;;;4995801;28;20552;-62
2022/02/18 02:59:13;;;;;;;18.40;4.57;;;;;;;;;;5014756;28;20070;-62
2022/02/18 03:01:39;;;;;;;14.37;5.27;;;;;;;;;;4995192;28;20165;-62
2022/02/18 03:04:04;;;;;;;11.95;4.80;;;;;;;;;;5002010;28;20395;-62
2022/02/18 03:06:29;;;;;;;17.33;3.57;;;;;;;;;;4992107;28;20077;-62
2022/02/18 03:08:54;;;;;;;15.33;5.77;;;;;;;;;;5003685;28;20109;-62
2022/02/18 03:11:21;;;;;;;13.07;7.03;;;;;;;;;;5002934;28;20129;-62
2022/02/18 03:13:50;;;;;;;11.77;5.45;;;;;;;;;;5003361;28;20083;-63
2022/02/18 03:16:16;;;;;;;12.95;4.82;;;;;;;;;;4997439;28;20098;-63
2022/02/18 03:18:41;;;;;;;16.73;3.80;;;;;;;;;;5008887;28;20079;-63
2022/02/18 03:21:07;;;;;;;12.43;3.43;;;;;;;;;;4999292;28;20615;-63
2022/02/18 03:23:32;;;;;;;15.38;5.70;;;;;;;;;;5002706;28;20086;-63
2022/02/18 03:25:57;;;;;;;17.95;4.63;;;;;;;;;;4990202;28;20095;-63
2022/02/18 03:28:23;;;;;;;12.23;5.70;;;;;;;;;;5003235;28;20160;-63
2022/02/18 03:30:48;;;;;;;15.03;4.57;;;;;;;;;;4991701;28;20087;-63
2022/02/18 03:33:13;;;;;;;13.03;3.00;;;;;;;;;;5001996;28;20292;-63
2022/02/18 03:35:38;;;;;;;12.17;3.17;;;;;;;;;;4992704;28;20326;-63
2022/02/18 03:38:04;;;;;;;15.32;3.10;;;;;;;;;;4998574;28;20086;-63
2022/02/18 03:40:29;;;;;;;14.55;3.42;;;;;;;;;;4994493;28;20125;-63
2022/02/18 03:42:54;;;;;;;10.57;4.70;;;;;;;;;;4997323;28;20097;-63
2022/02/18 03:45:19;;;;;;;15.93;4.63;;;;;;;;;;4997097;28;20106;-62
2022/02/18 03:47:45;;;;;;;16.13;5.17;;;;;;;;;;4995248;28;20105;-63
2022/02/18 03:50:10;;;;;;;14.77;6.57;;;;;;;;;;4998861;28;20106;-63
2022/02/18 03:52:35;;;;;;;13.83;6.73;;;;;;;;;;4994023;28;20657;-63
2022/02/18 03:55:00;;;;;;;16.40;6.33;;;;;;;;;;5000697;28;20078;-63
2022/02/18 03:57:26;;;;;;;14.70;6.53;;;;;;;;;;4995981;28;20172;-63
2022/02/18 03:59:51;;;;;;;15.03;6.93;;;;;;;;;;5008464;28;20137;-63
2022/02/18 04:02:16;;;;;;;12.53;3.97;;;;;;;;;;4989283;28;20076;-63
2022/02/18 04:04:41;;;;;;;12.33;5.07;;;;;;;;;;5002650;28;20134;-63
2022/02/18 04:07:07;;;;;;;17.47;6.77;;;;;;;;;;4989770;28;20054;-63
2022/02/18 04:09:32;;;;;;;15.57;6.65;;;;;;;;;;5002752;28;20349;-63
2022/02/18 04:11:57;;;;;;;15.83;5.13;;;;;;;;;;5000184;28;20094;-63
2022/02/18 04:14:23;;;;;;;17.03;3.40;;;;;;;;;;5002703;28;20889;-63
2022/02/18 04:16:48;;;;;;;15.07;3.50;;;;;;;;;;5002209;28;20151;-63
2022/02/18 04:19:13;;;;;;;15.33;3.20;;;;;;;;;;5002857;28;20506;-63
2022/02/18 04:21:39;;;;;;;12.67;6.63;;;;;;;;;;4989834;28;20659;-63
2022/02/18 04:24:04;;;;;;;15.17;7.43;;;;;;;;;;5000599;28;20114;-62
2022/02/18 04:26:29;;;;;;;14.67;5.97;;;;;;;;;;4992460;28;20071;-62
2022/02/18 04:28:54;;;;;;;12.43;5.57;;;;;;;;;;4999234;28;20151;-62
2022/02/18 04:31:19;;;;;;;14.53;6.03;;;;;;;;;;4994334;28;20063;-62
2022/02/18 04:33:45;;;;;;;14.77;3.30;;;;;;;;;;4997095;28;20102;-62
2022/02/18 04:36:11;;;;;;;12.57;4.33;;;;;;;;;;4995647;28;20186;-62
2022/02/18 04:38:36;;;;;;;11.93;6.20;;;;;;;;;;4995356;28;20165;-62
2022/02/18 04:41:02;;;;;;;11.88;6.22;;;;;;;;;;4997117;28;20627;-63
2022/02/18 04:43:27;;;;;;;14.30;5.40;;;;;;;;;;4993417;28;20070;-63
2022/02/18 04:45:52;;;;;;;13.70;6.50;;;;;;;;;;4999056;28;20102;-63
2022/02/18 04:48:18;;;;;;;17.07;4.20;;;;;;;;;;4991612;28;20094;-63
2022/02/18 04:50:43;;;;;;;11.67;6.53;;;;;;;;;;5001671;28;20082;-63
2022/02/18 04:53:08;;;;;;;11.47;4.73;;;;;;;;;;4989797;28;20174;-63
2022/02/18 04:55:34;;;;;;;12.43;5.53;;;;;;;;;;5001952;28;20528;-63
2022/02/18 04:57:59;;;;;;;11.68;5.28;;;;;;;;;;4989342;28;20078;-63
2022/02/18 05:00:24;;;;;;;11.53;4.97;;;;;;;;;;5009922;28;20747;-64
2022/02/18 05:02:49;;;;;;;14.33;5.40;;;;;;;;;;4990006;28;20528;-63
2022/02/18 05:05:15;;;;;;;11.67;3.97;;;;;;;;;;5001204;28;20102;-63
2022/02/18 05:07:40;;;;;;;12.77;5.03;;;;;;;;;;5001122;28;20117;-63
2022/02/18 05:10:05;;;;;;;12.82;3.78;;;;;;;;;;5001830;28;20463;-63
2022/02/18 05:12:31;;;;;;;13.80;5.63;;;;;;;;;;5001399;28;20098;-63
2022/02/18 05:14:56;;;;;;;11.33;5.80;;;;;;;;;;5002036;28;20237;-63
2022/02/18 05:17:21;;;;;;;10.18;5.53;;;;;;;;;;4990410;28;20531;-63
2022/02/18 05:19:47;;;;;;;10.67;4.80;;;;;;;;;;5007232;28;20499;-63
2022/02/18 05:22:12;;;;;;;13.57;5.13;;;;;;;;;;4993693;28;20149;-63
2022/02/18 05:24:37;;;;;;;12.70;5.30;;;;;;;;;;5001722;28;20583;-63
2022/02/18 05:27:03;;;;;;;13.18;5.32;;;;;;;;;;4993137;28;20560;-63
2022/02/18 05:29:28;;;;;;;14.00;5.35;;;;;;;;;;4996071;28;20537;-63
2022/02/18 05:31:53;;;;;;;11.40;5.03;;;;;;;;;;4995238;28;20110;-63
2022/02/18 05:34:19;;;;;;;13.37;5.27;;;;;;;;;;4998284;28;20120;-63
2022/02/18 05:36:44;;;;;;;11.50;5.13;;;;;;;;;;5000096;28;20415;-63
2022/02/18 05:39:09;;;;;;;13.33;4.97;;;;;;;;;;4991430;28;20081;-63
2022/02/18 05:41:34;;;;;;;8.60;5.00;;;;;;;;;;5000164;28;20102;-63
2022/02/18 05:44:00;;;;;;;12.23;4.30;;;;;;;;;;4996306;28;20376;-63
2022/02/18 05:46:25;;;;;;;10.87;4.63;;;;;;;;;;5005094;28;20070;-62
2022/02/18 05:48:50;;;;;;;9.30;4.80;;;;;;;;;;4991460;28;20349;-62
2022/02/18 05:51:15;;;;;;;10.90;5.00;;;;;;;;;;5013335;28;20324;-62
2022/02/18 05:53:41;;;;;;;13.13;4.50;;;;;;;;;;4997366;28;20599;-62
2022/02/18 05:56:06;;;;;;;12.67;3.50;;;;;;;;;;5004336;28;20091;-62
2022/02/18 05:58:32;;;;;;;16.30;3.78;;;;;;;;;;4991680;28;20370;-62
2022/02/18 06:00:57;;;;;;;12.40;4.90;;;;;;;;;;5008892;28;20105;-62
2022/02/18 06:03:22;;;;;;;19.50;4.03;;;;;;;;;;5002003;28;20100;-62
2022/02/18 06:05:48;;;;;;;14.73;4.10;;;;;;;;;;5003966;28;20363;-62
2022/02/18 06:08:13;;;;;;;21.67;4.05;;;;;;;;;;4998737;28;20109;-62
2022/02/18 06:10:38;;;;;;;15.37;3.30;;;;;;;;;;5015853;28;20108;-63
2022/02/18 06:13:04;;;;;;;11.83;4.90;;;;;;;;;;5007338;28;20106;-62
2022/02/18 06:15:29;;;;;;;10.02;4.57;;;;;;;;;;5008831;28;20081;-62
2022/02/18 06:17:54;;;;;;;17.73;3.53;;;;;;;;;;4991709;28;20353;-62
2022/02/18 06:20:19;;;;;;;12.30;3.50;;;;;;;;;;5004106;28;20383;-62
2022/02/18 06:22:45;;;;;;;13.60;3.53;;;;;;;;;;5004738;28;20082;-62
2022/02/18 06:25:12;;;;;;;11.27;3.42;;;;;;;;;;4993891;28;20107;-62
2022/02/18 06:27:37;;;;;;;10.35;3.90;;;;;;;;;;5009288;28;20529;-62
2022/02/18 06:30:02;;;;;;;13.37;4.33;;;;;;;;;;5019566;28;20153;-62
2022/02/18 06:32:28;;;;;;;11.27;3.97;;;;;;;;;;4993101;28;20165;-63
2022/02/18 06:34:54;;;;;;;12.07;3.70;;;;;;;;;;4990946;28;20153;-63
2022/02/18 06:37:19;;;;;;;14.73;3.30;;;;;;;;;;4994717;28;20109;-62
2022/02/18 06:39:44;;;;;;;14.93;3.43;;;;;;;;;;5000538;28;20526;-63
2022/02/18 06:42:09;;;;;;;9.83;3.83;;;;;;;;;;5003578;28;20325;-63
2022/02/18 06:44:34;;;;;;;13.87;4.40;;;;;;;;;;5008351;28;20408;-63
2022/02/18 06:47:00;;;;;;;15.00;4.13;;;;;;;;;;4996754;28;20128;-63
2022/02/18 06:49:25;;;;;;;11.37;4.13;;;;;;;;;;5002746;28;20106;-63
2022/02/18 06:51:55;;;;;;;10.73;4.20;;;;;;;;;;4991942;28;20173;-63
2022/02/18 06:54:23;;;;;;;10.32;4.35;;;;;;;;;;5003270;28;20121;-63
2022/02/18 06:56:49;;;;;;;10.00;3.78;;;;;;;;;;4992812;28;20126;-63
2022/02/18 06:59:14;;;;;;;9.13;3.93;;;;;;;;;;5010085;28;20180;-63
2022/02/18 07:01:39;;;;;;;9.57;4.00;;;;;;;;;;5011715;28;20115;-63
2022/02/18 07:04:04;;;;;;;9.10;4.23;;;;;;;;;;4998039;28;20118;-63
2022/02/18 07:06:29;;;;;;;12.17;4.23;;;;;;;;;;4996610;28;20114;-63
2022/02/18 07:08:55;;;;;;;10.70;4.03;;;;;;;;;;4995645;28;20592;-63
2022/02/18 07:11:22;;;;;;;12.30;4.17;;;;;;;;;;5002676;28;20069;-62
2022/02/18 07:13:47;;;;;;;16.90;3.97;;;;;;;;;;5003717;28;20467;-62
2022/02/18 07:16:12;;;;;;;9.70;4.20;;;;;;;;;;5001909;28;20202;-63
2022/02/18 07:18:37;;;;;;;10.80;3.93;;;;;;;;;;5000828;28;20071;-63
2022/02/18 07:21:03;;;;;;;14.70;3.83;;;;;;;;;;5006354;28;20114;-63
2022/02/18 07:23:28;;;;;;;10.90;3.80;;;;;;;;;;4998658;28;20260;-63
2022/02/18 07:25:53;;;;;;;10.97;4.20;;;;;;;;;;5002771;28;20086;-60
2022/02/18 07:28:18;;;;;;;15.60;3.90;;;;;;;;;;5011048;28;20179;-62
2022/02/18 07:30:44;;;;;;;10.97;4.53;;;;;;;;;;5000036;28;20133;-62
2022/02/18 07:33:09;;;;;;;13.63;4.10;;;;;;;;;;5014575;28;20410;-61
2022/02/18 07:35:34;;;;;;;12.82;4.93;;;;;;;;;;5012535;28;20117;-61
2022/02/18 07:38:00;;;;;;;13.30;4.07;;;;;;;;;;5007755;28;20161;-60
2022/02/18 07:40:25;;;;;;;13.25;4.90;;;;;;;;;;4995767;28;20213;-62
2022/02/18 07:42:51;;;;;;;13.43;5.20;;;;;;;;;;4997787;28;20075;-62
2022/02/18 07:45:16;;;;;;;16.63;6.57;;;;;;;;;;4993030;28;20109;-62
2022/02/18 07:47:41;;;;;;;17.53;6.33;;;;;;;;;;4993986;28;20126;-62
2022/02/18 07:50:06;;;;;;;17.67;6.20;;;;;;;;;;4993582;28;20168;-62
2022/02/18 07:52:32;;;;;;;16.38;6.72;;;;;;;;;;4986536;28;20131;-61
2022/02/18 07:54:57;;;;;;;20.83;4.93;;;;;;;;;;4991952;28;20410;-62
2022/02/18 07:57:25;;;;;;;18.40;7.20;;;;;;;;;;4998126;28;20180;-62
2022/02/18 07:59:50;;;;;;;23.27;9.93;;;;;;;;;;4991415;28;20357;-62
2022/02/18 08:02:15;;;;;;;18.55;7.43;;;;;;;;;;4986579;28;20556;-62
2022/02/18 08:04:41;;;;;;;19.30;9.40;;;;;;;;;;4991627;28;20107;-62
2022/02/18 08:07:06;;;;;;;25.73;13.13;;;;;;;;;;4997700;28;20358;-62
2022/02/18 08:09:33;;;;;;;24.17;13.00;;;;;;;;;;4998003;28;20802;-62
2022/02/18 08:11:58;;;;;;;22.35;6.88;;;;;;;;;;4997255;28;20563;-60
2022/02/18 08:14:24;;;;;;;28.70;13.98;;;;;;;;;;4997432;28;20125;-60
2022/02/18 08:16:49;;;;;;;21.77;5.83;;;;;;;;;;4996885;28;20521;-59
2022/02/18 08:19:14;;;;;;;24.73;14.47;;;;;;;;;;5001493;28;20177;-62
2022/02/18 08:21:39;;;;;;;21.73;4.90;;;;;;;;;;4999009;28;20313;-62
2022/02/18 08:24:05;;;;;;;29.40;14.47;;;;;;;;;;4997228;28;20099;-62
2022/02/18 08:26:32;;;;;;;26.77;10.55;;;;;;;;;;5000008;28;20072;-62
2022/02/18 08:28:57;;;;;;;20.70;11.75;;;;;;;;;;4998108;28;20096;-62
2022/02/18 08:31:22;;;;;;;19.63;5.03;;;;;;;;;;4992724;28;20059;-62
2022/02/18 08:33:47;;;;;;;27.53;16.70;;;;;;;;;;5001558;28;20097;-62
2022/02/18 08:36:13;;;;;;;27.00;13.80;;;;;;;;;;5010214;28;20105;-62
2022/02/18 08:38:38;;;;;;;23.47;10.17;;;;;;;;;;5003419;28;20325;-62
2022/02/18 08:41:03;;;;;;;27.10;15.63;;;;;;;;;;5004337;28;21096;-62
2022/02/18 08:43:29;;;;;;;27.33;16.47;;;;;;;;;;4995783;28;20062;-62
2022/02/18 08:45:54;;;;;;;24.63;8.87;;;;;;;;;;5004784;28;20089;-62
2022/02/18 08:48:19;;;;;;;32.07;18.00;;;;;;;;;;5001359;28;20102;-59
2022/02/18 08:50:44;;;;;;;32.33;18.50;;;;;;;;;;5006418;28;20070;-62
2022/02/18 08:53:09;;;;;;;33.83;17.43;;;;;;;;;;5012525;28;20124;-62
2022/02/18 08:55:35;;;;;;;26.37;14.27;;;;;;;;;;4998923;28;20181;-62
2022/02/18 08:58:01;;;;;;;28.58;13.88;;;;;;;;;;5001560;28;20432;-62
2022/02/18 09:00:27;;;;;;;25.13;4.65;;;;;;;;;;5001021;28;20098;-62
2022/02/18 09:02:52;;;;;;;44.90;4.70;;;;;;;;;;5004479;28;20140;-62
2022/02/18 09:05:18;;;;;;;27.67;13.65;;;;;;;;;;5000514;28;20141;-62
2022/02/18 09:07:44;;;;;;;26.70;13.90;;;;;;;;;;5006138;28;20102;-62
2022/02/18 09:10:10;;;;;;;26.55;12.50;;;;;;;;;;5002470;28;20078;-62
2022/02/18 09:12:37;;;;;;;20.95;4.57;;;;;;;;;;4999814;28;20597;-73
2022/02/18 09:15:04;;;;;;;41.25;19.23;;;;;;;;;;5011682;28;20072;-72
2022/02/18 09:17:29;;;;;;;15.80;3.83;;;;;;;;;;5017155;28;20109;-73
2022/02/18 09:19:55;;;;;;;65.00;23.60;;;;;;;;;;4999626;28;20122;-72
2022/02/18 09:22:20;;;;;;;39.17;18.13;;;;;;;;;;5000481;28;20750;-72
2022/02/18 09:24:45;;;;;;;31.03;13.80;;;;;;;;;;4991532;28;20207;-69
2022/02/18 09:27:10;;;;;;;14.53;3.90;;;;;;;;;;4999578;28;20086;-71
2022/02/18 09:29:36;;;;;;;13.47;3.87;;;;;;;;;;4997996;28;20105;-73
2022/02/18 09:32:03;;;;;;;17.90;3.73;;;;;;;;;;4991890;28;20199;-71
2022/02/18 09:34:29;;;;;;;11.02;3.17;;;;;;;;;;4993274;28;20133;-71
2022/02/18 09:36:54;;;;;;;22.33;9.32;;;;;;;;;;5000897;28;20107;-71
2022/02/18 09:39:21;;;;;;;11.33;4.27;;;;;;;;;;4992877;28;20144;-71
2022/02/18 09:41:46;;;;;;;17.13;4.20;;;;;;;;;;4999089;28;20114;-71
2022/02/18 09:44:13;;;;;;;13.63;3.30;;;;;;;;;;4997631;28;20447;-72
2022/02/18 09:46:39;;;;;;;19.77;9.88;;;;;;;;;;4992787;28;20065;-71
2022/02/18 09:49:04;;;;;;;21.75;10.30;;;;;;;;;;5004769;28;20166;-71
2022/02/18 09:51:30;;;;;;;5.67;1.90;;;;;;;;;;4990177;28;20066;-71
2022/02/18 09:53:58;;;;;;;18.48;8.93;;;;;;;;;;4993339;28;20346;-69
2022/02/18 09:56:23;;;;;;;6.60;3.20;;;;;;;;;;4998113;28;20098;-68
2022/02/18 09:58:48;;;;;;;10.80;2.83;;;;;;;;;;4996407;28;20077;-69
2022/02/18 10:01:14;;;;;;;8.50;2.63;;;;;;;;;;4991206;28;20406;-69
2022/02/18 10:03:39;;;;;;;21.27;12.90;;;;;;;;;;4996114;28;20098;-70
2022/02/18 10:06:04;;;;;;;7.82;2.78;;;;;;;;;;4992384;28;20556;-68
2022/02/18 10:08:31;;;;;;;7.45;3.15;;;;;;;;;;5000839;28;20102;-68
2022/02/18 10:10:58;;;;;;;7.30;4.05;;;;;;;;;;5004448;28;20082;-70
2022/02/18 10:13:30;;;;;;;5.03;1.73;;;;;;;;;;4992299;28;20602;-66
2022/02/18 10:15:57;;;;;;;3.00;1.58;;;;;;;;;;4989538;28;20107;-68
2022/02/18 10:18:23;;;;;;;3.60;1.75;;;;;;;;;;4998726;28;20089;-68
2022/02/18 10:20:49;;;;;;;5.07;1.33;;;;;;;;;;4994998;28;20510;-69
2022/02/18 10:23:16;;;;;;;3.17;1.60;;;;;;;;;;4990065;28;20157;-69
2022/02/18 10:25:43;;;;;;;1.95;1.15;;;;;;;;;;4995083;28;20428;-69
2022/02/18 10:28:11;;;;;;;1.10;0.70;;;;;;;;;;4997605;28;20098;-70
2022/02/18 10:30:37;;;;;;;4.15;1.30;;;;;;;;;;4994081;28;20084;-70
2022/02/18 10:33:20;;;;;;;1.95;1.40;;;;;;;;;;5016354;28;20471;-70
2022/02/18 10:35:45;;;;;;;14.63;8.00;;;;;;;;;;4984304;28;20570;-69
2022/02/18 10:38:10;;;;;;;5.90;4.03;;;;;;;;;;5002087;28;20067;-69
2022/02/18 10:40:45;;;;;;;11.35;6.30;;;;;;;;;;5005566;28;20103;-69
2022/02/18 10:43:11;;;;;;;10.05;4.93;;;;;;;;;;4990641;28;20427;-68
2022/02/18 10:45:50;;;;;;;6.93;2.70;;;;;;;;;;4997909;28;20204;-69
2022/02/18 10:48:17;;;;;;;;;;;;;;;;;;4983448;28;20198;-70
2022/02/18 10:50:42;;;;;;;5.85;1.55;;;;;;;;;;4997517;28;20222;-69
2022/02/18 10:53:16;;;;;;;5.15;2.17;;;;;;;;;;4991220;28;20098;-69
2022/02/18 10:55:52;;;;;;;3.38;1.77;;;;;;;;;;4990536;28;20619;-70
2022/02/18 10:58:38;;;;;;;6.35;2.65;;;;;;;;;;5003089;28;20424;-70
2022/02/18 11:01:13;;;;;;;2.40;1.15;;;;;;;;;;4988924;28;20105;-70
2022/02/18 11:03:48;;;;;;;5.65;1.98;;;;;;;;;;4998635;28;20069;-69
2022/02/18 11:06:17;;;;;;;1.35;0.88;;;;;;;;;;5009810;28;20082;-68
2022/02/18 11:09:09;;;;;;;1.67;0.98;;;;;;;;;;5011143;28;20094;-69
2022/02/18 11:11:36;;;;;;;1.13;0.70;;;;;;;;;;5004546;28;20559;-69
2022/02/18 11:14:02;;;;;;;0.68;0.45;;;;;;;;;;4991403;28;20157;-68
2022/02/18 11:16:28;;;;;;;0.57;0.57;;;;;;;;;;5002003;28;20181;-69
2022/02/18 11:18:53;;;;;;;3.33;1.45;;;;;;;;;;5003424;28;20074;-68
2022/02/18 11:21:19;;;;;;;1.10;0.50;;;;;;;;;;4998144;28;20121;-69
2022/02/18 11:23:44;;;;;;;2.43;0.67;;;;;;;;;;4987106;28;20111;-67
2022/02/18 11:26:13;;;;;;;0.50;0.50;;;;;;;;;;4996073;28;20090;-66
2022/02/18 11:28:38;;;;;;;0.93;0.70;;;;;;;;;;4996833;28;20614;-68
2022/02/18 11:31:05;;;;;;;1.42;0.63;;;;;;;;;;4996791;28;20157;-68
2022/02/18 11:33:52;;;;;;;0.30;0.30;;;;;;;;;;4985629;28;20095;-68
2022/02/18 11:36:23;;;;;;;1.35;0.65;;;;;;;;;;4984889;28;20106;-67
2022/02/18 11:38:55;;;;;;;0.50;0.50;;;;;;;;;;5003398;28;20335;-66
2022/02/18 11:41:23;;;;;;;3.13;1.80;;;;;;;;;;4991144;28;20105;-67
2022/02/18 11:43:49;;;;;;;0.50;0.50;;;;;;;;;;4998519;28;20169;-67
2022/02/18 11:46:24;;;;;;;1.65;0.60;;;;;;;;;;4993172;28;20091;-64
2022/02/18 11:48:49;;;;;;;0.73;0.68;;;;;;;;;;4994296;28;20101;-68
2022/02/18 11:51:14;;;;;;;0.65;0.50;;;;;;;;;;4997794;28;20106;-68
2022/02/18 11:53:43;;;;;;;1.00;0.50;;;;;;;;;;4994962;28;20288;-68
2022/02/18 11:56:09;;;;;;;;;;;;;;;;;;4991236;28;20525;-69
2022/02/18 11:58:49;;;;;;;1.63;0.60;;;;;;;;;;5002842;28;20053;-69
2022/02/18 12:01:15;;;;;;;1.40;0.50;;;;;;;;;;5012217;28;20106;-69
2022/02/18 12:03:40;;;;;;;1.38;0.45;;;;;;;;;;5010013;28;20105;-69
2022/02/18 12:06:09;;;;;;;0.73;0.40;;;;;;;;;;5011077;28;20112;-73
2022/02/18 12:08:41;;;;;;;0.43;0.43;;;;;;;;;;5003073;28;20846;-73
2022/02/18 12:11:12;;;;;;;1.50;0.50;;;;;;;;;;4990109;28;20605;-72
2022/02/18 12:13:50;;;;;;;0.65;0.50;;;;;;;;;;4989220;28;20129;-71
2022/02/18 12:16:15;;;;;;;2.13;0.73;;;;;;;;;;4993935;28;20102;-70
2022/02/18 12:18:44;;;;;;;1.38;0.65;;;;;;;;;;4996390;28;20559;-73
2022/02/18 12:21:11;;;;;;;2.13;0.80;;;;;;;;;;4995922;28;20250;-73
2022/02/18 12:23:41;;;;;;;0.50;0.50;;;;;;;;;;4988888;28;20153;-73
2022/02/18 12:26:24;;;;;;;1.25;0.80;;;;;;;;;;4992813;28;20786;-72
2022/02/18 12:28:50;;;;;;;1.80;0.85;;;;;;;;;;4995937;28;20102;-73
2022/02/18 12:31:16;;;;;;;1.08;0.98;;;;;;;;;;4994839;28;20144;-72
2022/02/18 12:33:42;;;;;;;0.45;0.45;;;;;;;;;;4988969;28;20181;-72
2022/02/18 12:36:08;;;;;;;1.00;1.00;;;;;;;;;;4990874;28;20095;-71
2022/02/18 12:38:33;;;;;;;1.83;0.35;;;;;;;;;;5001518;28;20502;-73
2022/02/18 12:40:58;;;;;;;1.20;0.80;;;;;;;;;;4997236;28;20559;-72
2022/02/18 12:43:24;;;;;;;0.85;0.60;;;;;;;;;;4988429;28;20317;-73
2022/02/18 12:45:49;;;;;;;0.77;0.57;;;;;;;;;;4990790;28;20103;-74
2022/02/18 12:48:15;;;;;;;1.77;0.70;;;;;;;;;;4995679;28;20112;-72
2022/02/18 12:50:41;;;;;;;0.77;0.50;;;;;;;;;;4993891;28;20113;-71
2022/02/18 12:53:06;;;;;;;0.40;0.40;;;;;;;;;;4988849;28;20595;-73
2022/02/18 12:55:33;;;;;;;4.70;0.82;;;;;;;;;;4991050;28;20121;-73
2022/02/18 12:57:59;;;;;;;2.25;0.95;;;;;;;;;;4995725;28;20078;-74
2022/02/18 13:00:24;;;;;;;0.53;0.47;;;;;;;;;;4993719;28;20160;-73
2022/02/18 13:02:50;;;;;;;0.75;0.50;;;;;;;;;;4989205;28;20158;-73
2022/02/18 13:05:19;;;;;;;1.58;1.13;;;;;;;;;;4990698;28;20114;-71
2022/02/18 13:07:55;;;;;;;0.40;0.40;;;;;;;;;;5000494;28;20118;-72
2022/02/18 13:10:21;;;;;;;0.60;0.45;;;;;;;;;;4997471;28;20079;-71
2022/02/18 13:12:50;;;;;;;1.55;0.30;;;;;;;;;;5002260;28;20131;-73
2022/02/18 13:15:23;;;;;;;0.75;0.30;;;;;;;;;;4987316;28;20070;-73
2022/02/18 13:17:49;;;;;;;0.45;0.45;;;;;;;;;;4977728;28;20194;-72
2022/02/18 13:20:32;;;;;;;0.60;0.50;;;;;;;;;;4969353;28;20599;-71
2022/02/18 13:23:01;;;;;;;1.55;0.60;;;;;;;;;;4969318;28;20079;-69
2022/02/18 13:25:28;;;;;;;1.25;0.50;;;;;;;;;;4990539;28;20106;-71
2022/02/18 13:27:53;;;;;;;3.58;0.63;;;;;;;;;;4992448;28;20117;-69
2022/02/18 13:30:22;;;;;;;0.70;0.50;;;;;;;;;;5021852;28;20086;-70
2022/02/18 13:32:47;;;;;;;;;;;;;;;;;;5021476;28;20092;-70
2022/02/18 13:35:19;;;;;;;0.47;0.47;;;;;;;;;;5021910;28;19972;-70
2022/02/18 13:37:44;;;;;;;1.10;0.68;;;;;;;;;;5019067;28;20654;-70
2022/02/18 13:40:14;;;;;;;0.60;0.53;;;;;;;;;;5011851;28;20108;-69
2022/02/18 13:42:52;;;;;;;0.80;0.68;;;;;;;;;;5019350;28;20214;-69
2022/02/18 13:45:17;;;;;;;0.70;0.35;;;;;;;;;;5020874;28;20106;-69
2022/02/18 13:47:43;;;;;;;0.75;0.60;;;;;;;;;;5021024;28;20098;-70
2022/02/18 13:50:08;;;;;;;2.47;0.40;;;;;;;;;;5021212;28;20062;-71
2022/02/18 13:52:33;;;;;;;2.85;0.60;;;;;;;;;;5019636;28;20650;-69
2022/02/18 13:54:58;;;;;;;0.40;0.40;;;;;;;;;;5019717;28;20509;-70
2022/02/18 13:57:29;;;;;;;0.40;0.40;;;;;;;;;;5023663;28;20118;-71
2022/02/18 13:59:55;;;;;;;0.75;0.70;;;;;;;;;;5024434;28;20594;-71
2022/02/18 14:02:22;;;;;;;0.70;0.70;;;;;;;;;;5024380;28;20074;-69
2022/02/18 14:04:48;;;;;;;1.65;0.50;;;;;;;;;;5024382;28;20452;-69
2022/02/18 14:07:14;;;;;;;0.85;0.47;;;;;;;;;;5010320;28;20158;-70
2022/02/18 14:09:40;;;;;;;4.15;0.80;;;;;;;;;;4982509;28;20126;-69
2022/02/18 14:12:05;;;;;;;0.30;0.22;;;;;;;;;;4980855;28;20180;-70
2022/02/18 14:14:30;;;;;;;0.43;0.38;;;;;;;;;;4972765;28;20130;-71
2022/02/18 14:16:56;;;;;;;0.50;0.50;;;;;;;;;;4991261;28;20099;-72
2022/02/18 14:19:22;;;;;;;2.92;0.47;;;;;;;;;;4997039;28;20071;-72
2022/02/18 14:21:57;;;;;;;0.45;0.40;;;;;;;;;;5024390;28;20118;-71
2022/02/18 14:24:29;;;;;;;0.60;0.60;;;;;;;;;;5024209;28;20355;-73
2022/02/18 14:26:54;;;;;;;2.00;0.60;;;;;;;;;;5024494;28;20073;-73
2022/02/18 14:29:19;;;;;;;0.43;0.43;;;;;;;;;;4977885;28;20094;-73